• Join FlightAware (Why Join?)
  • Login
  • US Flag 
06:29PM EDT


 

Airport Tracker/Info


-or-


 

Live Flight TrackerFlight Track Log ✈ N911PJ ✈ 01-Jun-2013 ✈ KGJT - KRAP

Flight Track Log - Related Links

Times and Time Zones

All times are in EDT time to prevent confusion due to time zone crossing. See the N911PJ flight status page for this flight to view local times or setup timezone preferences in your user account.

Time Position Orientation Groundspeed Altitude Reporting Facility
EDT Latitude Longitude Course Direction KTS MPH feet Rate Location/Type
06:26PM 39.1333 -108.5500 293° West 142 163 5,900  Level Denver TRACON
06:27PM 39.1500 -108.6000 293° West 162 186 7,400 1,620 Climbing Denver TRACON
06:28PM 39.1667 -108.6333 303° West 181 208 8,900 1,740 Climbing Denver TRACON
06:29PM 39.2089 -108.5847 42° Northeast 160 184 11,000 1,740 Climbing Denver Center
06:30PM 39.2442 -108.5492 38° Northeast 162 186 12,800 1,560 Climbing Denver Center
06:31PM 39.2850 -108.5036 41° Northeast 181 208 14,300 1,560 Climbing Denver Center
06:32PM 39.3275 -108.4592 39° Northeast 195 224 16,100 1,620 Climbing Denver Center
06:33PM 39.3700 -108.4167 38° Northeast 193 222 17,700 1,440 Climbing Denver Center
06:34PM 39.4142 -108.3706 39° Northeast 196 226 19,100 1,260 Climbing Denver Center
06:35PM 39.4594 -108.3250 38° Northeast 197 227 20,400 1,140 Climbing Denver Center
06:36PM 39.5047 -108.2822 36° Northeast 211 243 21,500 1,080 Climbing Denver Center
06:37PM 39.5556 -108.2264 40° Northeast 214 246 22,900 1,200 Climbing Denver Center
06:38PM 39.6036 -108.1672 43° Northeast 211 243 24,200 1,200 Climbing Denver Center
06:40PM 39.6578 -108.1081 40° Northeast 227 261 25,400 1,020 Climbing Denver Center
06:41PM 39.7056 -108.0600 38° Northeast 228 262 26,300 720 Climbing Denver Center
06:42PM 39.7625 -108.0003 39° Northeast 238 274 26,900 300 Climbing Denver Center
06:43PM 39.8169 -107.9447 38° Northeast 260 299 27,000  Climbing Denver Center
06:44PM 39.8750 -107.8839 39° Northeast 277 319 27,000  Level Denver Center
06:45PM 39.9422 -107.8108 40° Northeast 283 326 27,100  Climbing Denver Center
06:46PM 40.0006 -107.7458 40° Northeast 287 330 27,000 -60 Descending Denver Center
06:47PM 40.0661 -107.6669 43° Northeast 288 331 27,000  Level Denver Center
06:48PM 40.1258 -107.6053 38° Northeast 287 330 27,000  Level Denver Center
06:49PM 40.1978 -107.5378 36° Northeast 285 328 27,000  Level Denver Center
06:50PM 40.2478 -107.4883 37° Northeast 282 325 27,000  Level Denver Center
06:51PM 40.3064 -107.4264 39° Northeast 284 327 27,000  Level Denver Center
06:52PM 40.3858 -107.3417 39° Northeast 287 330 27,000  Level Denver Center
06:53PM 40.4464 -107.2806 38° Northeast 287 330 27,000  Level Denver Center
06:54PM 40.5119 -107.2064 41° Northeast 289 333 27,000  Level Denver Center
06:55PM 40.5681 -107.1406 42° Northeast 290 334 27,000  Level Denver Center
06:56PM 40.6289 -107.0700 41° Northeast 290 334 27,100  Climbing Denver Center
06:57PM 40.6911 -107.0033 39° Northeast 288 331 27,000 -60 Descending Denver Center
06:58PM 40.7647 -106.9231 40° Northeast 286 329 27,000  Level Denver Center
06:59PM 40.8228 -106.8594 40° Northeast 285 328 27,000  Level Denver Center
07:00PM 40.8811 -106.7942 40° Northeast 287 330 27,000  Level Denver Center
07:01PM 40.9508 -106.7206 39° Northeast 287 330 27,000  Level Denver Center
07:02PM 41.0111 -106.6544 40° Northeast 292 336 27,000 -60 Level Denver Center
07:03PM 41.0803 -106.5811 39° Northeast 288 331 26,900  Descending Denver Center
07:04PM 41.1392 -106.5161 40° Northeast 290 334 27,000  Climbing Denver Center
07:05PM 41.1972 -106.4494 41° Northeast 290 334 26,900  Descending Denver Center
07:06PM 41.2661 -106.3722 40° Northeast 289 333 27,000 60 Climbing Denver Center
07:07PM 41.3317 -106.2986 40° Northeast 289 333 27,100  Climbing Denver Center
07:08PM 41.3878 -106.2281 43° Northeast 287 330 27,000 -60 Descending Denver Center
07:09PM 41.4489 -106.1597 40° Northeast 293 337 27,000  Level Denver Center
07:10PM 41.5172 -106.0828 40° Northeast 290 334 27,000  Level Denver Center
07:11PM 41.5747 -106.0181 40° Northeast 285 328 27,000  Level Denver Center
07:12PM 41.6436 -105.9439 39° Northeast 282 325 27,000  Level Denver Center
07:13PM 41.7028 -105.8764 40° Northeast 290 334 27,000  Level Denver Center
07:14PM 41.7575 -105.8081 43° Northeast 282 325 27,000  Level Denver Center
07:15PM 41.8233 -105.7311 41° Northeast 281 323 27,000  Level Denver Center
07:16PM 41.8803 -105.6597 43° Northeast 289 333 27,000  Level Denver Center
07:17PM 41.9469 -105.5869 39° Northeast 276 318 27,000  Level Denver Center
07:18PM 42.0056 -105.5217 40° Northeast 281 323 27,000  Level Denver Center
07:19PM 42.0664 -105.4592 37° Northeast 283 326 27,100  Climbing Denver Center
07:21PM 42.1336 -105.3831 40° Northeast 281 323 27,000 -60 Descending Denver Center
07:22PM 42.1894 -105.3136 43° Northeast 284 327 27,000  Level Denver Center
07:23PM 42.2547 -105.2322 43° Northeast 286 329 27,000  Level Denver Center
07:24PM 42.3128 -105.1664 40° Northeast 282 325 27,000  Level Denver Center
07:25PM 42.3719 -105.1028 38° Northeast 282 325 27,000  Level Denver Center
07:26PM 42.4383 -105.0272 40° Northeast 278 320 27,000  Level Denver Center
07:27PM 42.4936 -104.9561 43° Northeast 283 326 27,100  Climbing Denver Center
07:28PM 42.5589 -104.8733 43° Northeast 286 329 27,000 -60 Descending Denver Center
07:29PM 42.6181 -104.8083 39° Northeast 284 327 27,000  Level Denver Center
07:30PM 42.6669 -104.7525 40° Northeast 284 327 27,000  Level Denver Center
07:31PM 42.7433 -104.6583 42° Northeast 286 329 27,000  Level Denver Center
07:32PM 42.7992 -104.5864 43° Northeast 286 329 27,000  Level Denver Center
07:33PM 42.8564 -104.5164 42° Northeast 287 330 27,000  Level Denver Center
07:34PM 42.9250 -104.4403 39° Northeast 285 328 27,000  Level Denver Center
07:35PM 42.9822 -104.3722 41° Northeast 284 327 27,000 -60 Level Denver Center
07:36PM 43.0469 -104.2869 44° Northeast 287 330 26,900 -420 Descending Denver Center
07:37PM 43.1047 -104.2164 42° Northeast 289 333 26,200 -960 Descending Denver Center
07:38PM 43.1694 -104.1461 38° Northeast 300 345 25,000 -1,320 Descending Denver Center
07:39PM 43.2417 -104.0633 40° Northeast 303 349 23,500 -1,380 Descending Denver Center
07:40PM 43.3008 -103.9881 43° Northeast 303 349 22,200 -1,440 Descending Denver Center
07:41PM 43.3683 -103.9000 43° Northeast 301 346 20,600 -1,440 Descending Denver Center
07:42PM 43.4208 -103.8344 42° Northeast 300 345 19,500 -1,440 Descending Denver Center
07:43PM 43.4897 -103.7519 41° Northeast 296 341 17,700 -1,620 Descending Denver Center
07:44PM 43.5550 -103.6731 41° Northeast 295 339 16,100 -1,860 Descending Denver Center
07:45PM 43.6106 -103.6025 43° Northeast 288 331 14,000 -1,980 Descending Denver Center
07:46PM 43.6647 -103.5258 46° Northeast 259 298 12,000 -1,800 Descending Denver Center
07:47PM 43.7075 -103.4669 45° Northeast 239 275 10,200 -1,080 Descending Denver Center
07:48PM 43.7514 -103.4147 41° Northeast 208 239 9,900 -600 Descending Denver Center
07:49PM 43.7997 -103.3517 43° Northeast 228 262 9,100 -780 Descending Denver Center
07:50PM 43.8567 -103.3211 21° North 230 265 8,400 -840 Descending Denver Center
07:51PM 43.9183 -103.2922 19° North 225 259 7,500 -960 Descending Denver Center
07:52PM 43.9678 -103.2961 357° North 210 242 6,600 -1,200 Descending Denver Center
07:53PM 44.0164 -103.2356 42° Northeast 216 249 5,200 -900 Descending Denver Center
07:54PM 44.0283 -103.1703 76° East 198 228 4,900 -480 Descending Denver Center
07:55PM 44.0300 -103.0961 88° East 192 221 4,300 -600 Descending Denver Center
07:56PM 44.0078 -103.0464 122° Southeast 143 165 3,700 -540 Descending Denver Center
07:58PM 44.0333 -103.0500 North  Level FlightAware Approximate
08:05PM 44.0453 -103.0574 North  Level Estimated